Time;durP1;ratioP1;P1;durP2;ratioP2;P2;SDS_P1;SDS_P2;PMS_P1;PMS_P2;Temp;Humidity;BMP_temperature;BMP_pressure;BME280_temperature;BME280_humidity;BME280_pressure;Samples;Min_cycle;Max_cycle;Signal;HPM_P1;HPM_P2
2021/04/04 00:00:23;;;;;;;51.60;19.87;;;0.40;99.90;;;;;;4400381;28;658795;-85
2021/04/04 00:03:10;;;;;;;60.90;23.07;;;0.40;99.90;;;;;;4396646;28;658726;-86
2021/04/04 00:05:58;;;;;;;53.35;21.67;;;0.50;99.90;;;;;;4396752;28;658632;-86
2021/04/04 00:08:47;;;;;;;60.03;22.00;;;0.50;99.90;;;;;;4424750;28;658915;-86
2021/04/04 00:11:34;;;;;;;56.40;21.67;;;0.60;99.90;;;;;;4397765;28;659112;-86
2021/04/04 00:14:22;;;;;;;52.23;21.13;;;0.60;99.90;;;;;;4423958;28;658524;-86
2021/04/04 00:17:11;;;;;;;47.73;19.23;;;0.60;99.90;;;;;;4371743;28;660252;-85
2021/04/04 00:19:58;;;;;;;47.97;20.03;;;0.60;99.90;;;;;;4375722;28;658877;-86
2021/04/04 00:22:46;;;;;;;58.00;21.57;;;0.60;99.90;;;;;;4406063;28;658829;-86
2021/04/04 00:25:34;;;;;;;54.17;22.23;;;0.60;99.90;;;;;;4387119;28;659005;-85
2021/04/04 00:28:22;;;;;;;50.65;20.60;;;0.70;99.90;;;;;;4414158;28;658389;-86
2021/04/04 00:31:09;;;;;;;50.77;20.93;;;0.70;99.90;;;;;;4376957;28;658606;-86
2021/04/04 00:33:58;;;;;;;47.83;20.40;;;0.70;99.90;;;;;;4407278;28;658328;-85
2021/04/04 00:36:45;;;;;;;52.33;21.20;;;0.80;99.90;;;;;;4391526;28;659004;-86
2021/04/04 00:39:33;;;;;;;51.13;19.67;;;0.80;99.90;;;;;;4399104;28;658675;-86
2021/04/04 00:42:20;;;;;;;43.60;19.43;;;0.80;99.90;;;;;;4399627;28;659677;-86
2021/04/04 00:45:11;;;;;;;45.15;18.85;;;0.80;99.90;;;;;;4377002;28;658485;-86
2021/04/04 00:47:58;;;;;;;45.50;18.43;;;0.80;99.90;;;;;;4375186;28;658852;-86
2021/04/04 00:50:47;;;;;;;47.78;19.67;;;0.90;99.90;;;;;;4394440;28;659802;-85
2021/04/04 00:53:34;;;;;;;52.57;19.93;;;0.90;99.90;;;;;;4384880;28;660031;-85
2021/04/04 00:56:22;;;;;;;55.10;19.88;;;0.90;99.90;;;;;;4412582;28;658314;-86
2021/04/04 00:59:09;;;;;;;45.87;18.77;;;0.80;99.90;;;;;;4375749;28;659254;-85
2021/04/04 01:01:57;;;;;;;43.53;18.27;;;0.80;99.90;;;;;;4404382;28;659100;-85
2021/04/04 01:04:47;;;;;;;46.33;18.67;;;0.80;99.90;;;;;;4368195;28;659334;-86
2021/04/04 01:07:36;;;;;;;42.63;18.70;;;0.80;99.90;;;;;;4374197;28;658997;-86
2021/04/04 01:10:24;;;;;;;41.00;17.77;;;0.80;99.90;;;;;;4376785;28;658663;-86
2021/04/04 01:13:31;;;;;;;43.40;17.70;;;0.80;99.90;;;;;;4398038;28;659078;-85
2021/04/04 01:16:22;;;;;;;43.67;17.67;;;0.80;99.90;;;;;;4377577;28;658658;-85
2021/04/04 01:19:11;;;;;;;46.37;17.20;;;0.70;99.90;;;;;;4394782;28;658651;-86
2021/04/04 01:22:04;;;;;;;39.37;16.63;;;0.60;99.90;;;;;;4393202;28;658633;-86
2021/04/04 01:24:57;;;;;;;42.03;17.80;;;0.70;99.90;;;;;;4374307;28;658980;-86
2021/04/04 01:27:48;;;;;;;39.50;17.17;;;0.60;99.90;;;;;;4393785;28;658479;-85
2021/04/04 01:30:38;;;;;;;42.20;17.27;;;0.60;99.90;;;;;;4394563;28;658853;-85
2021/04/04 01:33:26;;;;;;;36.60;17.27;;;0.60;99.90;;;;;;4399041;28;659121;-85
2021/04/04 01:36:16;;;;;;;43.77;16.50;;;0.60;99.90;;;;;;4397190;28;658496;-85
2021/04/04 01:39:07;;;;;;;45.70;18.10;;;0.60;99.90;;;;;;4396003;28;659042;-85
2021/04/04 01:41:55;;;;;;;46.97;18.93;;;0.60;99.90;;;;;;4406460;28;658923;-85
2021/04/04 01:44:55;;;;;;;46.03;18.43;;;0.60;99.90;;;;;;4400317;28;658980;-85
2021/04/04 01:47:43;;;;;;;45.07;16.63;;;0.70;99.90;;;;;;4378024;28;659204;-85
2021/04/04 01:50:31;;;;;;;35.07;15.83;;;0.70;99.90;;;;;;4418537;28;659656;-85
2021/04/04 01:53:19;;;;;;;43.50;16.47;;;0.70;99.90;;;;;;4392340;28;658558;-85
2021/04/04 01:56:07;;;;;;;43.13;16.97;;;0.60;99.90;;;;;;4402783;28;658701;-85
2021/04/04 01:58:54;;;;;;;38.60;16.60;;;0.60;99.90;;;;;;4384890;28;659653;-85
2021/04/04 02:01:46;;;;;;;36.00;14.57;;;0.60;99.90;;;;;;4422888;28;659394;-85
2021/04/04 02:04:35;;;;;;;37.35;15.23;;;0.50;99.90;;;;;;4394447;28;658653;-85
2021/04/04 02:07:23;;;;;;;36.93;14.63;;;0.50;99.90;;;;;;4385613;28;658444;-85
2021/04/04 02:10:12;;;;;;;40.10;16.33;;;0.50;99.90;;;;;;4425430;28;659334;-84
2021/04/04 02:13:00;;;;;;;40.27;16.30;;;0.50;99.90;;;;;;4398556;28;659887;-84
2021/04/04 02:15:48;;;;;;;41.10;17.00;;;0.40;99.90;;;;;;4401117;28;659227;-85
2021/04/04 02:18:37;;;;;;;37.93;15.70;;;0.40;99.90;;;;;;4402158;28;658565;-84
2021/04/04 02:21:24;;;;;;;35.57;14.07;;;0.40;99.90;;;;;;4394813;28;659815;-85
2021/04/04 02:24:12;;;;;;;40.00;15.23;;;0.40;99.90;;;;;;4408716;28;658698;-84
2021/04/04 02:27:00;;;;;;;40.13;13.83;;;0.30;99.90;;;;;;4405438;28;658479;-84
2021/04/04 02:29:48;;;;;;;42.13;15.10;;;0.30;99.90;;;;;;4384102;28;659273;-84
2021/04/04 02:32:37;;;;;;;38.27;15.17;;;0.30;99.90;;;;;;4401057;28;659553;-84
2021/04/04 02:35:28;;;;;;;40.70;15.27;;;0.20;99.90;;;;;;4391957;28;658933;-84
2021/04/04 02:38:17;;;;;;;36.23;13.87;;;0.20;99.90;;;;;;4380404;28;659297;-84
2021/04/04 02:41:08;;;;;;;38.03;13.83;;;0.10;99.90;;;;;;4400106;28;659906;-84
2021/04/04 02:43:56;;;;;;;37.90;12.70;;;0.10;99.90;;;;;;4385077;28;658831;-85
2021/04/04 02:46:46;;;;;;;33.40;12.30;;;0.10;99.90;;;;;;4401798;28;659120;-85
2021/04/04 02:49:35;;;;;;;31.40;12.07;;;0.10;99.90;;;;;;4394686;28;658927;-84
2021/04/04 02:52:24;;;;;;;31.23;12.27;;;0.00;99.90;;;;;;4397228;28;658574;-85
2021/04/04 02:55:12;;;;;;;29.93;11.53;;;0.00;99.90;;;;;;4404878;28;658515;-84
2021/04/04 02:58:00;;;;;;;34.37;12.17;;;0.00;99.90;;;;;;4397762;28;659684;-84
2021/04/04 03:00:47;;;;;;;27.57;11.20;;;0.00;99.90;;;;;;4408584;28;658929;-84
2021/04/04 03:03:35;;;;;;;27.07;11.10;;;0.00;99.90;;;;;;4400818;28;659207;-84
2021/04/04 03:06:23;;;;;;;29.10;11.30;;;0.00;99.90;;;;;;4415656;28;659255;-84
2021/04/04 03:09:11;;;;;;;29.53;10.93;;;0.00;99.90;;;;;;4423977;28;658761;-84
2021/04/04 03:11:59;;;;;;;31.30;10.67;;;0.00;99.90;;;;;;4408574;28;659269;-85
2021/04/04 03:14:49;;;;;;;26.30;10.40;;;0.00;99.90;;;;;;4420181;28;658826;-84
2021/04/04 03:17:38;;;;;;;26.43;11.00;;;0.00;99.90;;;;;;4392800;28;658801;-83
2021/04/04 03:20:26;;;;;;;25.30;10.83;;;0.00;99.90;;;;;;4397473;28;659781;-83
2021/04/04 03:23:14;;;;;;;29.83;10.93;;;0.00;99.90;;;;;;4391251;28;658518;-84
2021/04/04 03:26:02;;;;;;;31.43;12.37;;;0.00;99.90;;;;;;4410864;28;658552;-84
2021/04/04 03:28:49;;;;;;;27.63;11.10;;;-0.10;99.90;;;;;;4405458;28;658597;-83
2021/04/04 03:31:37;;;;;;;33.03;12.10;;;-0.10;99.90;;;;;;4428804;28;659215;-84
2021/04/04 03:34:25;;;;;;;26.60;11.30;;;-0.10;99.90;;;;;;4400806;28;660115;-84
2021/04/04 03:37:13;;;;;;;31.20;10.75;;;0.00;99.90;;;;;;4403849;28;660141;-84
2021/04/04 03:40:00;;;;;;;32.10;10.60;;;-0.10;99.90;;;;;;4419014;28;659253;-84
2021/04/04 03:42:49;;;;;;;30.17;11.03;;;-0.10;99.90;;;;;;4391922;28;659649;-83
2021/04/04 03:45:37;;;;;;;26.33;10.97;;;-0.10;99.90;;;;;;4417057;28;659783;-84
2021/04/04 03:48:24;;;;;;;28.50;11.53;;;-0.10;99.90;;;;;;4392411;28;659576;-84
2021/04/04 03:51:11;;;;;;;29.40;11.90;;;-0.10;99.90;;;;;;4420723;28;659726;-83
2021/04/04 03:53:59;;;;;;;29.13;10.73;;;-0.10;99.90;;;;;;4398011;28;660127;-84
2021/04/04 03:56:48;;;;;;;25.73;10.93;;;-0.10;99.90;;;;;;4407135;28;660053;-85
2021/04/04 03:59:38;;;;;;;27.70;10.83;;;-0.20;99.90;;;;;;4403172;28;659556;-84
2021/04/04 04:02:26;;;;;;;31.00;11.50;;;-0.20;99.90;;;;;;4394350;28;660131;-83
2021/04/04 04:05:13;;;;;;;24.93;9.63;;;-0.20;99.90;;;;;;4394426;28;659731;-83
2021/04/04 04:08:01;;;;;;;24.87;10.37;;;-0.20;99.90;;;;;;4416773;28;659128;-83
2021/04/04 04:10:48;;;;;;;29.77;10.30;;;-0.20;99.90;;;;;;4392480;28;659405;-84
2021/04/04 04:13:36;;;;;;;33.07;10.90;;;-0.20;99.90;;;;;;4416389;28;660020;-83
2021/04/04 04:16:24;;;;;;;28.73;10.00;;;-0.30;99.90;;;;;;4394460;28;659914;-83
2021/04/04 04:19:11;;;;;;;26.75;10.43;;;-0.30;99.90;;;;;;4419172;28;660269;-83
2021/04/04 04:21:59;;;;;;;25.37;10.10;;;-0.30;99.90;;;;;;4378893;28;659653;-83
2021/04/04 04:24:47;;;;;;;23.10;9.33;;;-0.30;99.90;;;;;;4408251;28;659971;-83
2021/04/04 04:27:35;;;;;;;26.67;12.43;;;-0.40;99.90;;;;;;4386988;28;658968;-83
2021/04/04 04:30:23;;;;;;;23.27;10.10;;;-0.40;99.90;;;;;;4399220;28;659770;-84
2021/04/04 04:33:14;;;;;;;25.93;9.37;;;-0.40;99.90;;;;;;4414502;28;660329;-83
2021/04/04 04:36:02;;;;;;;24.08;9.52;;;-0.40;99.90;;;;;;4365400;28;658797;-84
2021/04/04 04:38:50;;;;;;;22.97;9.73;;;-0.40;99.90;;;;;;4379108;28;659159;-83
2021/04/04 04:41:40;;;;;;;25.20;9.43;;;-0.40;99.90;;;;;;4405134;28;658188;-84
2021/04/04 04:44:29;;;;;;;26.63;9.67;;;-0.40;99.90;;;;;;4393697;28;658662;-84
2021/04/04 04:47:16;;;;;;;30.83;11.93;;;-0.40;99.90;;;;;;4411481;28;658630;-83
2021/04/04 04:50:05;;;;;;;20.13;9.30;;;-0.40;99.90;;;;;;4393822;28;660375;-84
2021/04/04 04:52:55;;;;;;;21.30;9.13;;;-0.40;99.90;;;;;;4404066;28;658779;-83
2021/04/04 04:55:42;;;;;;;27.20;9.63;;;-0.40;99.90;;;;;;4396500;28;658381;-84
2021/04/04 04:58:30;;;;;;;38.30;12.48;;;-0.40;99.90;;;;;;4424263;28;659026;-83
2021/04/04 05:01:18;;;;;;;30.02;10.43;;;-0.40;99.90;;;;;;4397677;28;660030;-83
2021/04/04 05:04:06;;;;;;;29.90;9.87;;;-0.30;99.90;;;;;;4430944;28;659691;-83
2021/04/04 05:06:54;;;;;;;29.10;10.67;;;-0.30;99.90;;;;;;4397070;28;659615;-83
2021/04/04 05:09:41;;;;;;;24.43;9.50;;;-0.30;99.90;;;;;;4431800;28;659329;-83
2021/04/04 05:12:28;;;;;;;28.33;9.18;;;-0.20;99.90;;;;;;4402316;28;658957;-83
2021/04/04 05:15:16;;;;;;;23.30;9.23;;;-0.10;99.90;;;;;;4417814;28;659809;-83
2021/04/04 05:18:05;;;;;;;25.53;9.00;;;-0.10;99.90;;;;;;4406283;28;658582;-83
2021/04/04 05:20:52;;;;;;;23.30;9.57;;;0.00;99.90;;;;;;4413618;28;659215;-84
2021/04/04 05:23:40;;;;;;;23.80;9.43;;;0.10;99.90;;;;;;4422286;28;657949;-83
2021/04/04 05:26:28;;;;;;;21.95;9.38;;;0.10;99.90;;;;;;4393747;28;658368;-84
2021/04/04 05:29:16;;;;;;;28.33;8.93;;;0.20;99.90;;;;;;4424134;28;658017;-84
2021/04/04 05:32:03;;;;;;;20.23;7.83;;;0.20;99.90;;;;;;4404647;28;657350;-84
2021/04/04 05:34:50;;;;;;;17.67;7.40;;;0.30;99.90;;;;;;4408347;28;658299;-83
2021/04/04 05:37:37;;;;;;;19.10;7.47;;;0.30;99.90;;;;;;4411543;28;658118;-85
2021/04/04 05:40:26;;;;;;;19.93;7.43;;;0.30;99.90;;;;;;4416924;28;657729;-83
2021/04/04 05:43:13;;;;;;;17.63;7.60;;;0.30;99.90;;;;;;4395071;28;658376;-84
2021/04/04 05:46:02;;;;;;;22.15;7.35;;;0.50;99.90;;;;;;4417152;28;658210;-83
2021/04/04 05:48:57;;;;;;;16.77;6.63;;;0.50;99.90;;;;;;4392314;28;658083;-84
2021/04/04 05:51:51;;;;;;;17.60;6.90;;;0.60;99.90;;;;;;4390339;28;657718;-84
2021/04/04 05:54:54;;;;;;;17.37;6.43;;;0.70;99.90;;;;;;4393481;28;658026;-84
2021/04/04 05:57:45;;;;;;;18.03;7.27;;;0.80;99.90;;;;;;4391233;28;657531;-84
2021/04/04 06:00:33;;;;;;;14.93;6.87;;;0.80;99.90;;;;;;4412634;28;658069;-85
2021/04/04 06:03:54;;;;;;;20.23;7.28;;;0.90;99.90;;;;;;4419471;28;658461;-85
2021/04/04 06:06:56;;;;;;;17.30;7.10;;;0.90;99.90;;;;;;4391419;28;657612;-85
2021/04/04 06:09:51;;;;;;;14.93;7.30;;;0.90;99.90;;;;;;4386281;28;657685;-83
2021/04/04 06:12:51;;;;;;;19.67;6.93;;;1.00;99.90;;;;;;4396407;28;657650;-84
2021/04/04 06:15:44;;;;;;;17.40;7.53;;;1.10;99.90;;;;;;4394694;28;657934;-83
2021/04/04 06:18:46;;;;;;;13.17;6.30;;;1.10;99.90;;;;;;4404985;28;658084;-83
2021/04/04 06:21:36;;;;;;;19.07;6.27;;;1.20;99.90;;;;;;4412521;28;657366;-83
2021/04/04 06:24:29;;;;;;;13.93;5.47;;;1.30;99.90;;;;;;4410477;28;657792;-83
2021/04/04 06:27:20;;;;;;;13.32;5.70;;;1.40;99.90;;;;;;4403268;28;657329;-82
2021/04/04 06:30:46;;;;;;;13.47;6.40;;;1.60;99.90;;;;;;4414983;28;657480;-85
2021/04/04 06:33:33;;;;;;;12.30;5.33;;;1.60;99.90;;;;;;4410381;28;657918;-83
2021/04/04 06:36:34;;;;;;;11.53;5.37;;;1.60;99.90;;;;;;4405299;28;657908;-84
2021/04/04 06:39:26;;;;;;;17.27;7.37;;;1.70;99.90;;;;;;4406523;28;657469;-84
2021/04/04 06:42:15;;;;;;;15.47;6.70;;;2.00;99.90;;;;;;4372725;28;658303;-85
2021/04/04 06:45:07;;;;;;;15.17;6.47;;;2.20;99.90;;;;;;4398519;28;658373;-84
2021/04/04 06:48:06;;;;;;;16.03;5.97;;;2.40;99.90;;;;;;4408685;28;657793;-84
2021/04/04 06:50:54;;;;;;;11.03;4.60;;;2.70;99.90;;;;;;4386255;28;657599;-83
2021/04/04 06:53:50;;;;;;;19.47;6.03;;;3.00;99.90;;;;;;4419395;28;657285;-84
2021/04/04 06:56:46;;;;;;;13.63;5.43;;;3.20;99.90;;;;;;4380111;28;657696;-86
2021/04/04 06:59:34;;;;;;;9.77;4.40;;;3.50;99.90;;;;;;4396077;28;657882;-84
2021/04/04 07:02:28;;;;;;;10.10;4.57;;;3.90;99.90;;;;;;4419448;28;656250;-84
2021/04/04 07:05:17;;;;;;;8.37;4.60;;;4.20;99.90;;;;;;4400104;28;658504;-84
2021/04/04 07:08:24;;;;;;;14.17;3.90;;;4.60;99.90;;;;;;4384485;28;657156;-83
2021/04/04 07:11:19;;;;;;;9.37;4.20;;;4.60;99.90;;;;;;4363004;28;658234;-84
2021/04/04 07:14:40;;;;;;;11.27;4.85;;;4.40;99.90;;;;;;4371239;28;657001;-84
2021/04/04 07:17:54;;;;;;;14.33;4.00;;;4.30;99.90;;;;;;4338852;28;657618;-85
2021/04/04 07:20:50;;;;;;;10.27;3.22;;;4.30;99.90;;;;;;4365810;28;657380;-84
2021/04/04 07:23:50;;;;;;;11.07;3.27;;;4.30;99.90;;;;;;4384489;28;657778;-83
2021/04/04 07:26:53;;;;;;;14.60;4.63;;;4.10;99.90;;;;;;4373018;28;657747;-82
2021/04/04 07:29:57;;;;;;;14.10;4.47;;;4.10;99.90;;;;;;4354901;28;658637;-83
2021/04/04 07:32:46;;;;;;;13.23;4.97;;;4.00;99.90;;;;;;4372418;28;658151;-84
2021/04/04 07:35:40;;;;;;;12.63;5.30;;;3.80;99.90;;;;;;4371727;28;657490;-84
2021/04/04 07:38:32;;;;;;;12.63;5.20;;;3.70;99.90;;;;;;4363284;28;657986;-84
2021/04/04 07:41:24;;;;;;;15.80;5.13;;;3.70;99.90;;;;;;4373423;28;658526;-82
2021/04/04 07:44:17;;;;;;;16.97;5.67;;;3.90;99.90;;;;;;4367773;28;657557;-83
2021/04/04 07:47:11;;;;;;;13.03;5.07;;;4.20;99.90;;;;;;4352972;28;657598;-83
2021/04/04 07:49:59;;;;;;;17.27;5.00;;;4.60;99.90;;;;;;4374121;28;658403;-83
2021/04/04 07:52:49;;;;;;;17.90;5.03;;;4.80;99.90;;;;;;4417249;28;657652;-83
2021/04/04 07:55:41;;;;;;;10.33;4.50;;;5.10;99.90;;;;;;4395503;28;657913;-83
2021/04/04 07:58:30;;;;;;;11.90;4.30;;;5.20;99.90;;;;;;4398833;28;658473;-84
2021/04/04 08:01:18;;;;;;;16.30;4.63;;;5.80;99.90;;;;;;4411896;28;657809;-85
2021/04/04 08:04:10;;;;;;;12.67;5.03;;;6.40;99.90;;;;;;4427173;28;658367;-83
2021/04/04 08:06:58;;;;;;;8.07;3.33;;;6.60;99.90;;;;;;4395454;28;657879;-85
2021/04/04 08:09:49;;;;;;;9.57;3.33;;;6.70;99.90;;;;;;4404976;28;656944;-85
2021/04/04 08:12:42;;;;;;;7.90;2.90;;;6.50;99.90;;;;;;4413427;28;656996;-85
2021/04/04 08:15:35;;;;;;;13.30;3.80;;;6.60;99.90;;;;;;4413204;28;656685;-84
2021/04/04 08:18:22;;;;;;;9.93;3.80;;;6.10;99.90;;;;;;4404300;28;657970;-85
2021/04/04 08:21:12;;;;;;;9.33;4.30;;;6.30;99.90;;;;;;4426328;28;657801;-84
2021/04/04 08:24:06;;;;;;;12.20;4.50;;;7.00;99.90;;;;;;4413732;28;657412;-84
2021/04/04 08:26:54;;;;;;;10.17;4.37;;;6.90;99.90;;;;;;4411716;28;658225;-85
2021/04/04 08:29:43;;;;;;;6.57;2.97;;;7.30;99.90;;;;;;4434159;28;657987;-85
2021/04/04 08:32:36;;;;;;;12.97;4.60;;;7.50;99.90;;;;;;4411579;28;657741;-85
2021/04/04 08:35:25;;;;;;;10.67;3.30;;;7.80;99.90;;;;;;4401508;28;657727;-84
2021/04/04 08:38:17;;;;;;;5.82;2.35;;;8.00;99.90;;;;;;4412701;28;657419;-85
2021/04/04 08:41:04;;;;;;;8.05;3.13;;;8.30;99.90;;;;;;4400921;28;656930;-85
2021/04/04 08:43:58;;;;;;;8.70;3.20;;;8.70;99.90;;;;;;4429469;28;656385;-86
2021/04/04 08:46:48;;;;;;;5.80;2.40;;;9.00;99.90;;;;;;4396045;28;657050;-84
2021/04/04 08:49:35;;;;;;;5.80;2.37;;;9.40;99.90;;;;;;4404369;28;657521;-86
2021/04/04 08:52:24;;;;;;;11.23;3.33;;;9.00;94.50;;;;;;4402871;28;656690;-85
2021/04/04 08:55:13;;;;;;;7.83;3.17;;;9.30;97.60;;;;;;4416000;28;657361;-85
2021/04/04 08:58:02;;;;;;;8.37;3.17;;;9.60;96.30;;;;;;4411895;28;657172;-85
2021/04/04 09:00:51;;;;;;;9.30;3.20;;;9.70;95.30;;;;;;4412960;28;656558;-85
2021/04/04 09:03:42;;;;;;;6.97;2.90;;;10.00;96.70;;;;;;4401434;28;656517;-86
2021/04/04 09:06:35;;;;;;;8.73;3.13;;;10.70;96.20;;;;;;4412358;28;657373;-85
2021/04/04 09:09:23;;;;;;;7.73;3.00;;;10.90;92.30;;;;;;4389286;28;657437;-86
2021/04/04 09:12:10;;;;;;;10.63;3.17;;;10.80;90.10;;;;;;4421789;28;658129;-84
2021/04/04 09:14:58;;;;;;;8.40;3.17;;;10.20;85.90;;;;;;4382258;28;658591;-85
2021/04/04 09:17:52;;;;;;;6.30;2.47;;;9.00;86.50;;;;;;4426059;28;659104;-84
2021/04/04 09:20:43;;;;;;;7.27;2.50;;;8.40;90.10;;;;;;4385894;28;656977;-84
2021/04/04 09:23:30;;;;;;;5.87;2.77;;;8.00;90.10;;;;;;4386435;28;657445;-83
2021/04/04 09:26:19;;;;;;;7.53;2.77;;;7.60;90.80;;;;;;4413142;28;656872;-83
2021/04/04 09:29:06;;;;;;;8.93;3.00;;;7.30;90.40;;;;;;4421836;28;656895;-84
2021/04/04 09:31:53;;;;;;;4.97;2.97;;;7.20;90.30;;;;;;4385927;28;656793;-84
2021/04/04 09:34:41;;;;;;;6.17;2.87;;;7.00;91.20;;;;;;4421366;28;657154;-83
2021/04/04 09:37:29;;;;;;;4.57;1.90;;;7.00;92.00;;;;;;4398459;28;657025;-84
2021/04/04 09:40:16;;;;;;;6.50;2.00;;;6.80;91.80;;;;;;4418494;28;656655;-84
2021/04/04 09:43:08;;;;;;;5.57;2.00;;;6.60;91.40;;;;;;4395235;28;656926;-84
2021/04/04 09:46:03;;;;;;;7.33;3.23;;;6.40;91.90;;;;;;4395599;28;657297;-83
2021/04/04 09:48:50;;;;;;;6.73;2.20;;;6.40;92.10;;;;;;4395245;28;657609;-83
2021/04/04 09:51:47;;;;;;;12.30;3.10;;;6.40;92.10;;;;;;4411865;28;656513;-84
2021/04/04 09:54:37;;;;;;;7.07;2.50;;;6.50;93.20;;;;;;4393859;28;658019;-83
2021/04/04 09:57:24;;;;;;;6.03;2.20;;;6.80;93.30;;;;;;4383648;28;657522;-84
2021/04/04 10:00:19;;;;;;;5.17;2.30;;;7.10;92.80;;;;;;4420997;28;656351;-84
2021/04/04 10:03:10;;;;;;;6.87;2.33;;;7.40;92.90;;;;;;4399063;28;657105;-83
2021/04/04 10:05:57;;;;;;;10.93;2.37;;;7.70;92.30;;;;;;4373234;28;656925;-84
2021/04/04 10:08:52;;;;;;;3.28;1.60;;;8.20;86.40;;;;;;4420273;28;657820;-84
2021/04/04 10:11:40;;;;;;;4.77;1.53;;;8.70;82.20;;;;;;4394552;28;656800;-83
2021/04/04 10:14:27;;;;;;;4.97;2.00;;;9.40;88.80;;;;;;4387966;28;657069;-84
2021/04/04 10:17:15;;;;;;;20.70;6.50;;;9.90;85.30;;;;;;4392667;28;656805;-83
2021/04/04 10:20:04;;;;;;;16.23;5.67;;;9.90;81.80;;;;;;4391022;28;657309;-84
2021/04/04 10:22:52;;;;;;;50.90;16.50;;;9.90;80.40;;;;;;4402320;28;657469;-84
2021/04/04 10:25:56;;;;;;;28.27;9.83;;;9.50;77.70;;;;;;4374747;28;659985;-84
2021/04/04 10:28:45;;;;;;;17.93;6.40;;;9.10;73.40;;;;;;4378696;28;658112;-84
2021/04/04 10:31:46;;;;;;;4.73;2.20;;;8.80;72.50;;;;;;4378619;28;657992;-83
2021/04/04 10:34:42;;;;;;;5.70;2.20;;;8.50;74.70;;;;;;4379204;28;657505;-84
2021/04/04 10:37:29;;;;;;;4.10;1.70;;;8.30;75.90;;;;;;4369090;28;656596;-83
2021/04/04 10:40:16;;;;;;;7.13;3.70;;;8.20;75.10;;;;;;4402756;28;656417;-83
2021/04/04 10:43:03;;;;;;;4.07;2.17;;;8.10;74.10;;;;;;4379672;28;657279;-84
2021/04/04 10:46:02;;;;;;;3.97;1.37;;;8.10;74.00;;;;;;4400343;28;656519;-83
2021/04/04 10:48:49;;;;;;;1.70;1.20;;;8.70;74.20;;;;;;4377111;28;656870;-83
2021/04/04 10:51:36;;;;;;;4.13;1.43;;;9.00;70.70;;;;;;4392349;28;656896;-83
2021/04/04 10:54:23;;;;;;;3.73;1.50;;;8.20;72.20;;;;;;4368995;28;656370;-83
2021/04/04 10:57:10;;;;;;;4.00;1.60;;;8.50;73.20;;;;;;4400362;28;657567;-83
2021/04/04 10:59:58;;;;;;;3.63;1.70;;;8.10;71.60;;;;;;4379452;28;656479;-84
2021/04/04 11:02:45;;;;;;;5.77;1.67;;;8.10;69.20;;;;;;4402683;28;657319;-83
2021/04/04 11:05:33;;;;;;;7.13;3.03;;;8.10;70.40;;;;;;4378116;28;656543;-84
2021/04/04 11:08:20;;;;;;;10.33;3.80;;;7.70;74.00;;;;;;4402462;28;657255;-83
2021/04/04 11:11:07;;;;;;;9.33;2.97;;;7.70;76.70;;;;;;4367829;28;657484;-83
2021/04/04 11:13:55;;;;;;;4.23;2.03;;;7.80;77.20;;;;;;4402376;28;657331;-83
2021/04/04 11:16:42;;;;;;;6.10;2.27;;;8.10;76.60;;;;;;4405920;28;656954;-84
2021/04/04 11:19:30;;;;;;;3.90;2.37;;;8.20;74.50;;;;;;4408674;28;656702;-83
2021/04/04 11:22:19;;;;;;;4.20;1.90;;;8.20;74.60;;;;;;4396018;28;656789;-84
2021/04/04 11:25:09;;;;;;;4.33;1.93;;;8.20;72.90;;;;;;4409070;28;656303;-83
2021/04/04 11:27:56;;;;;;;4.23;1.90;;;8.00;72.30;;;;;;4395856;28;656756;-83
2021/04/04 11:30:43;;;;;;;4.33;1.67;;;8.00;72.60;;;;;;4397514;28;656953;-83
2021/04/04 11:33:30;;;;;;;5.07;1.80;;;8.10;71.90;;;;;;4406998;28;656727;-83
2021/04/04 11:36:18;;;;;;;8.03;1.77;;;8.20;71.20;;;;;;4385335;28;656413;-84
2021/04/04 11:39:09;;;;;;;4.87;1.87;;;8.40;71.30;;;;;;4419342;28;657070;-84
2021/04/04 11:41:56;;;;;;;6.30;1.70;;;8.40;70.40;;;;;;4396324;28;656544;-83
2021/04/04 11:44:51;;;;;;;5.17;1.90;;;8.60;69.80;;;;;;4393574;28;656503;-83
2021/04/04 11:47:41;;;;;;;4.57;1.70;;;8.90;69.00;;;;;;4396582;28;657251;-84
2021/04/04 11:50:28;;;;;;;6.17;2.00;;;9.30;69.20;;;;;;4396899;28;657033;-83
2021/04/04 11:53:40;;;;;;;6.47;1.80;;;9.20;66.90;;;;;;4418557;28;657722;-83
2021/04/04 11:56:44;;;;;;;6.10;1.90;;;8.60;65.40;;;;;;4395548;28;657105;-84
2021/04/04 11:59:31;;;;;;;7.57;1.83;;;7.50;68.90;;;;;;4385234;28;657263;-83
2021/04/04 12:02:19;;;;;;;5.37;1.60;;;7.10;71.50;;;;;;4394642;28;656123;-83
2021/04/04 12:05:08;;;;;;;3.97;1.60;;;6.70;71.40;;;;;;4416128;28;657297;-83
2021/04/04 12:07:55;;;;;;;4.93;2.03;;;6.40;70.40;;;;;;4396402;28;656821;-83
2021/04/04 12:10:43;;;;;;;4.97;2.03;;;6.40;72.70;;;;;;4395860;28;656950;-84
2021/04/04 12:13:30;;;;;;;6.03;2.40;;;6.70;73.50;;;;;;4419457;28;657510;-83
2021/04/04 12:16:17;;;;;;;6.80;1.92;;;7.40;78.10;;;;;;4395858;28;656384;-83
2021/04/04 12:19:05;;;;;;;4.50;1.83;;;7.70;72.40;;;;;;4406787;28;656650;-83
2021/04/04 12:21:52;;;;;;;6.93;2.33;;;8.20;73.10;;;;;;4412174;28;656600;-83
2021/04/04 12:24:44;;;;;;;4.03;1.85;;;9.00;71.10;;;;;;4418826;28;656425;-83
2021/04/04 12:27:32;;;;;;;4.57;2.03;;;9.40;69.50;;;;;;4396380;28;656397;-83
2021/04/04 12:30:24;;;;;;;5.83;2.47;;;9.70;67.10;;;;;;4387860;28;657778;-84
2021/04/04 12:33:11;;;;;;;4.23;1.47;;;9.80;64.70;;;;;;4396076;28;656596;-83
2021/04/04 12:35:58;;;;;;;5.97;2.00;;;10.00;60.90;;;;;;4394304;28;656763;-83
2021/04/04 12:38:45;;;;;;;5.53;2.30;;;10.40;60.50;;;;;;4427839;28;658428;-83
2021/04/04 12:41:33;;;;;;;4.40;1.87;;;11.00;62.30;;;;;;4411611;28;657508;-84
2021/04/04 12:44:39;;;;;;;5.03;1.80;;;10.90;57.70;;;;;;4419325;28;658403;-85
2021/04/04 12:47:26;;;;;;;4.90;2.03;;;10.60;56.90;;;;;;4412076;28;658329;-83
2021/04/04 12:50:14;;;;;;;6.93;2.00;;;10.50;58.30;;;;;;4412672;28;657332;-86
2021/04/04 12:53:01;;;;;;;4.37;1.63;;;9.70;58.70;;;;;;4434975;28;657908;-86
2021/04/04 12:55:48;;;;;;;5.37;1.90;;;9.50;59.90;;;;;;4409022;28;657596;-86
2021/04/04 12:58:36;;;;;;;7.43;2.17;;;9.50;60.00;;;;;;4435874;28;657158;-86
2021/04/04 13:01:24;;;;;;;3.47;1.97;;;9.10;62.40;;;;;;4413453;28;656317;-87
2021/04/04 13:04:16;;;;;;;3.93;1.97;;;9.40;64.20;;;;;;4434212;28;656897;-87
2021/04/04 13:07:08;;;;;;;4.17;1.80;;;10.00;61.20;;;;;;4412503;28;656536;-87
2021/04/04 13:09:58;;;;;;;4.33;1.90;;;11.00;65.10;;;;;;4408780;28;658985;-86
2021/04/04 13:12:45;;;;;;;5.27;1.83;;;11.90;56.70;;;;;;4409130;28;658209;-86
2021/04/04 13:15:32;;;;;;;4.78;2.00;;;12.10;54.70;;;;;;4417648;28;657319;-86
2021/04/04 13:18:22;;;;;;;4.07;1.87;;;12.50;54.70;;;;;;4435823;28;657605;-86
2021/04/04 13:21:17;;;;;;;3.17;1.63;;;12.50;52.40;;;;;;4411655;28;657264;-85
2021/04/04 13:24:13;;;;;;;4.97;1.97;;;11.20;52.40;;;;;;4400409;28;657622;-86
2021/04/04 13:27:00;;;;;;;7.90;1.80;;;11.70;55.40;;;;;;4412014;28;657505;-86
2021/04/04 13:29:47;;;;;;;5.27;2.13;;;11.50;52.30;;;;;;4411895;28;657550;-86
2021/04/04 13:32:42;;;;;;;5.28;2.20;;;11.60;53.50;;;;;;4435031;28;657981;-84
2021/04/04 13:35:33;;;;;;;5.30;2.20;;;11.50;52.40;;;;;;4407114;28;657880;-83
2021/04/04 13:38:26;;;;;;;5.23;2.00;;;10.90;54.90;;;;;;4403559;28;658543;-83
2021/04/04 13:41:13;;;;;;;5.47;2.10;;;10.20;54.70;;;;;;4391135;28;658114;-83
2021/04/04 13:44:07;;;;;;;4.60;1.67;;;10.60;58.20;;;;;;4416317;28;658087;-83
2021/04/04 13:46:55;;;;;;;3.57;1.83;;;10.90;52.90;;;;;;4394758;28;658094;-83
2021/04/04 13:49:42;;;;;;;4.73;1.70;;;10.80;54.00;;;;;;4411033;28;657607;-83
2021/04/04 13:52:32;;;;;;;5.97;2.00;;;10.10;52.90;;;;;;4416310;28;657757;-82
2021/04/04 13:55:26;;;;;;;4.33;1.90;;;9.70;54.30;;;;;;4381876;28;658441;-82
2021/04/04 13:58:33;;;;;;;4.47;2.00;;;9.30;55.10;;;;;;4390376;28;657252;-83
2021/04/04 14:01:28;;;;;;;3.63;1.70;;;9.50;55.30;;;;;;4377613;28;657293;-83
2021/04/04 14:04:16;;;;;;;4.47;1.90;;;9.60;55.20;;;;;;4371738;28;657212;-83
2021/04/04 14:07:04;;;;;;;3.70;1.63;;;9.50;55.20;;;;;;4380938;28;656579;-83
2021/04/04 14:09:53;;;;;;;6.13;2.03;;;9.00;56.20;;;;;;4408695;28;656281;-83
2021/04/04 14:12:40;;;;;;;4.87;2.10;;;8.80;55.50;;;;;;4392697;28;657175;-83
2021/04/04 14:15:27;;;;;;;5.60;1.80;;;8.60;56.00;;;;;;4413625;28;656830;-84
2021/04/04 14:18:14;;;;;;;7.05;2.22;;;8.40;56.80;;;;;;4428556;28;656478;-82
2021/04/04 14:21:02;;;;;;;5.50;2.50;;;8.50;57.30;;;;;;4418347;28;656726;-83
2021/04/04 14:23:49;;;;;;;7.75;2.67;;;8.40;56.80;;;;;;4413233;28;656565;-83
2021/04/04 14:26:37;;;;;;;7.57;3.08;;;8.40;58.00;;;;;;4421413;28;656756;-83
2021/04/04 14:29:24;;;;;;;7.63;2.40;;;8.40;58.50;;;;;;4395555;28;657055;-85
2021/04/04 14:32:11;;;;;;;6.13;2.45;;;8.00;58.70;;;;;;4436191;28;656191;-84